CheckWX is a tool to help pilots better visualize weather data.  It is not intended as a substitute for an official pre-flight weather briefing.

18:15:25 UTC

RKJK TAF
Kunsan Air Base Airport
Kunsan, South Korea
TAF RKJK 211500Z 2115/2221 VRB06KT 6000 BR BKN150 QNH3030INS BECMG 2200/2201 06009KT 9999 NSW FEW150 QNH3032INS TX12/2206Z TN00/2117Z

Nov-21@
15:00 UTC

Nov-21 @ 15:00 UTC

Nov-22@
00:00 UTC

Nov-22 @ 00:00 UTC

TAF RKJK 211500Z 2115/2221 VRB06KT 6000 BR BKN150 QNH3030INS
Wind
  • Variable at 6 KTS
Conditions
Mist
Cloud Levels
  • Broken at 15,000' AGL

Nov-22@
00:00 UTC

Nov-22 @ 00:00 UTC

Nov-22@
21:00 UTC

Nov-22 @ 21:00 UTC

BECMG 2200/2201 06009KT 9999 NSW FEW150 QNH3032INS TX12/2206Z TN00/2117Z

Becoming

Becoming Conditions expected by Fri, Nov 22, 2019 @ 01:00 UTC

Wind
  • 060° at 9 KTS
Conditions
No significant weather
Cloud Levels
  • Few at 15,000' AGL